sensor_id;sensor_type;location;lat;lon;timestamp;P1;P2;P0
46044;PMS7003;31781;54.094;13.428;2023-05-10T00:01:43;5.25;5.25;4.00
46044;PMS7003;31781;54.094;13.428;2023-05-10T00:03:45;6.75;4.75;4.75
46044;PMS7003;31781;54.094;13.428;2023-05-10T00:05:46;2.00;2.00;1.00
46044;PMS7003;31781;54.094;13.428;2023-05-10T00:07:50;4.00;4.00;3.00
46044;PMS7003;31781;54.094;13.428;2023-05-10T00:09:52;4.75;4.75;3.50
46044;PMS7003;31781;54.094;13.428;2023-05-10T00:11:53;4.75;4.50;4.00
46044;PMS7003;31781;54.094;13.428;2023-05-10T00:13:55;7.75;6.50;5.50
46044;PMS7003;31781;54.094;13.428;2023-05-10T00:15:57;4.00;4.00;3.00
46044;PMS7003;31781;54.094;13.428;2023-05-10T00:17:59;3.25;3.25;3.00
46044;PMS7003;31781;54.094;13.428;2023-05-10T00:20:00;4.25;4.00;4.00
46044;PMS7003;31781;54.094;13.428;2023-05-10T00:22:02;3.75;3.75;3.00
46044;PMS7003;31781;54.094;13.428;2023-05-10T00:24:05;2.00;2.00;2.00
46044;PMS7003;31781;54.094;13.428;2023-05-10T00:26:07;7.25;5.00;4.00
46044;PMS7003;31781;54.094;13.428;2023-05-10T00:28:09;5.25;5.25;5.00
46044;PMS7003;31781;54.094;13.428;2023-05-10T00:30:11;5.75;4.75;4.50
46044;PMS7003;31781;54.094;13.428;2023-05-10T00:32:13;5.00;5.00;4.00
46044;PMS7003;31781;54.094;13.428;2023-05-10T00:34:15;3.50;3.50;3.00
46044;PMS7003;31781;54.094;13.428;2023-05-10T00:36:17;4.00;4.00;4.00
46044;PMS7003;31781;54.094;13.428;2023-05-10T00:38:19;6.25;5.00;4.00
46044;PMS7003;31781;54.094;13.428;2023-05-10T00:40:22;5.50;5.50;5.00
46044;PMS7003;31781;54.094;13.428;2023-05-10T00:42:24;3.00;3.00;3.00
46044;PMS7003;31781;54.094;13.428;2023-05-10T00:44:26;4.75;4.75;4.00
46044;PMS7003;31781;54.094;13.428;2023-05-10T00:46:27;6.50;5.00;4.50
46044;PMS7003;31781;54.094;13.428;2023-05-10T00:48:30;3.25;3.25;2.75
46044;PMS7003;31781;54.094;13.428;2023-05-10T00:50:33;6.75;5.25;5.00
46044;PMS7003;31781;54.094;13.428;2023-05-10T00:52:35;1.00;1.00;0.00
46044;PMS7003;31781;54.094;13.428;2023-05-10T00:54:37;6.00;6.00;5.00
46044;PMS7003;31781;54.094;13.428;2023-05-10T00:56:40;6.00;6.00;5.00
46044;PMS7003;31781;54.094;13.428;2023-05-10T00:58:42;6.00;4.50;4.00
46044;PMS7003;31781;54.094;13.428;2023-05-10T01:00:46;5.75;5.75;4.75
46044;PMS7003;31781;54.094;13.428;2023-05-10T01:02:48;6.00;6.00;5.00
46044;PMS7003;31781;54.094;13.428;2023-05-10T01:04:49;6.25;5.00;5.00
46044;PMS7003;31781;54.094;13.428;2023-05-10T01:06:52;4.00;4.00;3.75
46044;PMS7003;31781;54.094;13.428;2023-05-10T01:08:54;6.00;6.00;4.75
46044;PMS7003;31781;54.094;13.428;2023-05-10T01:10:56;6.50;6.50;5.00
46044;PMS7003;31781;54.094;13.428;2023-05-10T01:13:00;5.25;5.25;4.50
46044;PMS7003;31781;54.094;13.428;2023-05-10T01:15:02;6.00;4.75;4.25
46044;PMS7003;31781;54.094;13.428;2023-05-10T01:17:05;7.50;7.50;6.00
46044;PMS7003;31781;54.094;13.428;2023-05-10T01:19:10;6.00;6.00;5.25
46044;PMS7003;31781;54.094;13.428;2023-05-10T01:21:27;4.25;4.25;3.50
46044;PMS7003;31781;54.094;13.428;2023-05-10T01:23:36;7.75;6.00;5.00
46044;PMS7003;31781;54.094;13.428;2023-05-10T01:26:08;6.75;5.75;4.75
46044;PMS7003;31781;54.094;13.428;2023-05-10T01:28:28;6.75;6.75;5.00
46044;PMS7003;31781;54.094;13.428;2023-05-10T01:33:21;4.50;4.50;3.50
46044;PMS7003;31781;54.094;13.428;2023-05-10T01:35:30;4.50;4.50;4.00
46044;PMS7003;31781;54.094;13.428;2023-05-10T01:37:40;5.50;5.50;5.00
46044;PMS7003;31781;54.094;13.428;2023-05-10T01:39:44;5.00;5.00;4.50
46044;PMS7003;31781;54.094;13.428;2023-05-10T01:41:51;5.00;5.00;4.25
46044;PMS7003;31781;54.094;13.428;2023-05-10T01:43:57;5.00;5.00;4.25
46044;PMS7003;31781;54.094;13.428;2023-05-10T01:46:05;4.50;4.50;3.25
46044;PMS7003;31781;54.094;13.428;2023-05-10T01:48:10;4.00;4.00;4.00
46044;PMS7003;31781;54.094;13.428;2023-05-10T01:50:16;4.25;4.25;4.00
46044;PMS7003;31781;54.094;13.428;2023-05-10T01:52:22;4.75;4.75;4.00
46044;PMS7003;31781;54.094;13.428;2023-05-10T01:54:32;3.25;3.25;2.75
46044;PMS7003;31781;54.094;13.428;2023-05-10T01:56:35;5.75;5.75;5.00
46044;PMS7003;31781;54.094;13.428;2023-05-10T01:58:40;6.00;6.00;5.00
46044;PMS7003;31781;54.094;13.428;2023-05-10T02:00:47;6.25;6.25;5.00
46044;PMS7003;31781;54.094;13.428;2023-05-10T02:02:50;5.50;5.50;5.00
46044;PMS7003;31781;54.094;13.428;2023-05-10T02:04:54;6.00;6.00;4.75
46044;PMS7003;31781;54.094;13.428;2023-05-10T02:06:59;6.00;6.00;5.25
46044;PMS7003;31781;54.094;13.428;2023-05-10T02:09:01;7.00;5.75;5.00
46044;PMS7003;31781;54.094;13.428;2023-05-10T02:11:04;5.00;5.00;4.50
46044;PMS7003;31781;54.094;13.428;2023-05-10T02:13:07;7.00;7.00;5.25
46044;PMS7003;31781;54.094;13.428;2023-05-10T02:15:11;5.00;5.00;4.75
46044;PMS7003;31781;54.094;13.428;2023-05-10T02:17:16;7.00;5.75;4.00
46044;PMS7003;31781;54.094;13.428;2023-05-10T02:19:18;3.25;3.25;3.00
46044;PMS7003;31781;54.094;13.428;2023-05-10T02:21:22;6.25;6.25;5.25
46044;PMS7003;31781;54.094;13.428;2023-05-10T02:23:26;7.00;6.00;5.75
46044;PMS7003;31781;54.094;13.428;2023-05-10T02:25:30;6.00;6.00;5.00
46044;PMS7003;31781;54.094;13.428;2023-05-10T02:27:34;7.75;7.75;6.00
46044;PMS7003;31781;54.094;13.428;2023-05-10T02:29:38;5.75;5.75;4.75
46044;PMS7003;31781;54.094;13.428;2023-05-10T02:31:40;8.00;7.25;5.00
46044;PMS7003;31781;54.094;13.428;2023-05-10T02:33:43;9.50;7.50;6.00
46044;PMS7003;31781;54.094;13.428;2023-05-10T02:35:47;6.50;6.50;5.00
46044;PMS7003;31781;54.094;13.428;2023-05-10T02:37:52;5.25;5.25;4.75
46044;PMS7003;31781;54.094;13.428;2023-05-10T02:40:00;7.25;6.75;6.00
46044;PMS7003;31781;54.094;13.428;2023-05-10T02:42:03;5.75;5.75;5.00
46044;PMS7003;31781;54.094;13.428;2023-05-10T02:44:06;7.25;7.00;6.50
46044;PMS7003;31781;54.094;13.428;2023-05-10T02:46:10;7.00;7.00;6.00
46044;PMS7003;31781;54.094;13.428;2023-05-10T02:48:11;8.50;7.50;6.00
46044;PMS7003;31781;54.094;13.428;2023-05-10T02:50:13;7.00;5.50;4.25
46044;PMS7003;31781;54.094;13.428;2023-05-10T02:52:16;7.25;6.00;5.00
46044;PMS7003;31781;54.094;13.428;2023-05-10T02:54:24;6.00;6.00;5.00
46044;PMS7003;31781;54.094;13.428;2023-05-10T02:56:33;6.00;6.00;5.00
46044;PMS7003;31781;54.094;13.428;2023-05-10T02:58:38;6.00;6.00;4.50
46044;PMS7003;31781;54.094;13.428;2023-05-10T03:00:40;5.25;5.25;4.25
46044;PMS7003;31781;54.094;13.428;2023-05-10T03:02:42;9.00;7.25;6.00
46044;PMS7003;31781;54.094;13.428;2023-05-10T03:04:44;8.25;6.75;5.50
46044;PMS7003;31781;54.094;13.428;2023-05-10T03:06:46;3.25;3.25;2.75
46044;PMS7003;31781;54.094;13.428;2023-05-10T03:08:48;7.25;7.25;6.00
46044;PMS7003;31781;54.094;13.428;2023-05-10T03:10:54;6.00;6.00;5.00
46044;PMS7003;31781;54.094;13.428;2023-05-10T03:13:12;7.25;7.00;5.00
46044;PMS7003;31781;54.094;13.428;2023-05-10T03:15:22;5.75;5.75;4.75
46044;PMS7003;31781;54.094;13.428;2023-05-10T03:17:35;8.00;6.50;5.25
46044;PMS7003;31781;54.094;13.428;2023-05-10T03:19:50;6.75;6.75;6.50
46044;PMS7003;31781;54.094;13.428;2023-05-10T03:21:54;7.00;7.00;5.50
46044;PMS7003;31781;54.094;13.428;2023-05-10T03:24:05;9.25;8.00;7.00
46044;PMS7003;31781;54.094;13.428;2023-05-10T03:26:09;5.75;5.75;5.00
46044;PMS7003;31781;54.094;13.428;2023-05-10T03:28:17;6.75;6.75;6.00
46044;PMS7003;31781;54.094;13.428;2023-05-10T03:30:21;8.50;8.50;7.00
46044;PMS7003;31781;54.094;13.428;2023-05-10T03:32:25;8.00;7.00;5.50
46044;PMS7003;31781;54.094;13.428;2023-05-10T03:34:27;9.00;7.25;6.50
46044;PMS7003;31781;54.094;13.428;2023-05-10T03:36:32;7.25;7.25;6.00
46044;PMS7003;31781;54.094;13.428;2023-05-10T03:38:33;6.75;6.75;6.00
46044;PMS7003;31781;54.094;13.428;2023-05-10T03:40:35;7.75;7.75;6.00
46044;PMS7003;31781;54.094;13.428;2023-05-10T03:42:37;8.50;8.50;6.25
46044;PMS7003;31781;54.094;13.428;2023-05-10T03:44:40;7.25;7.25;6.00
46044;PMS7003;31781;54.094;13.428;2023-05-10T03:46:42;9.25;7.75;7.00
46044;PMS7003;31781;54.094;13.428;2023-05-10T03:48:44;9.00;9.00;6.50
46044;PMS7003;31781;54.094;13.428;2023-05-10T03:50:46;7.25;7.25;6.25
46044;PMS7003;31781;54.094;13.428;2023-05-10T03:52:47;6.75;6.50;5.00
46044;PMS7003;31781;54.094;13.428;2023-05-10T03:54:49;6.25;6.25;5.50
46044;PMS7003;31781;54.094;13.428;2023-05-10T03:56:51;8.00;8.00;6.25
46044;PMS7003;31781;54.094;13.428;2023-05-10T03:58:53;8.00;7.50;5.50
46044;PMS7003;31781;54.094;13.428;2023-05-10T04:00:56;8.50;7.75;6.75
46044;PMS7003;31781;54.094;13.428;2023-05-10T04:02:59;7.00;7.00;6.25
46044;PMS7003;31781;54.094;13.428;2023-05-10T04:05:00;8.00;8.00;6.00
46044;PMS7003;31781;54.094;13.428;2023-05-10T04:07:03;9.00;9.00;6.00
46044;PMS7003;31781;54.094;13.428;2023-05-10T04:09:04;13.50;11.00;7.75
46044;PMS7003;31781;54.094;13.428;2023-05-10T04:11:06;8.75;8.25;7.00
46044;PMS7003;31781;54.094;13.428;2023-05-10T04:13:09;8.25;6.75;5.50
46044;PMS7003;31781;54.094;13.428;2023-05-10T04:15:10;11.50;9.50;7.00
46044;PMS7003;31781;54.094;13.428;2023-05-10T04:17:13;9.00;7.25;5.75
46044;PMS7003;31781;54.094;13.428;2023-05-10T04:19:15;8.75;8.75;7.75
46044;PMS7003;31781;54.094;13.428;2023-05-10T04:21:16;8.25;6.75;6.75
46044;PMS7003;31781;54.094;13.428;2023-05-10T04:23:18;9.00;9.00;7.00
46044;PMS7003;31781;54.094;13.428;2023-05-10T04:25:20;7.50;7.50;6.25
46044;PMS7003;31781;54.094;13.428;2023-05-10T04:27:22;8.00;8.00;7.00
46044;PMS7003;31781;54.094;13.428;2023-05-10T04:29:23;7.00;7.00;6.50
46044;PMS7003;31781;54.094;13.428;2023-05-10T04:31:25;6.75;6.00;5.00
46044;PMS7003;31781;54.094;13.428;2023-05-10T04:33:28;6.75;6.25;6.00
46044;PMS7003;31781;54.094;13.428;2023-05-10T04:35:30;7.25;7.25;6.50
46044;PMS7003;31781;54.094;13.428;2023-05-10T04:37:32;10.75;10.75;8.25
46044;PMS7003;31781;54.094;13.428;2023-05-10T04:39:34;8.25;8.25;6.75
46044;PMS7003;31781;54.094;13.428;2023-05-10T04:41:37;6.50;5.75;4.00
46044;PMS7003;31781;54.094;13.428;2023-05-10T04:43:39;6.75;6.75;5.75
46044;PMS7003;31781;54.094;13.428;2023-05-10T04:45:41;7.50;7.50;6.00
46044;PMS7003;31781;54.094;13.428;2023-05-10T04:47:42;7.00;6.00;3.50
46044;PMS7003;31781;54.094;13.428;2023-05-10T04:49:45;7.50;5.25;5.00
46044;PMS7003;31781;54.094;13.428;2023-05-10T04:51:47;6.50;6.50;5.25
46044;PMS7003;31781;54.094;13.428;2023-05-10T04:53:48;7.00;7.00;6.00
46044;PMS7003;31781;54.094;13.428;2023-05-10T04:56:05;7.50;7.50;6.75
46044;PMS7003;31781;54.094;13.428;2023-05-10T04:58:07;6.00;6.00;5.00
46044;PMS7003;31781;54.094;13.428;2023-05-10T05:00:09;5.00;5.00;4.50
46044;PMS7003;31781;54.094;13.428;2023-05-10T05:02:12;8.00;7.25;5.50
46044;PMS7003;31781;54.094;13.428;2023-05-10T05:04:13;7.50;7.50;5.00
46044;PMS7003;31781;54.094;13.428;2023-05-10T05:06:17;6.25;6.25;5.25
46044;PMS7003;31781;54.094;13.428;2023-05-10T05:08:18;6.25;6.25;5.50
46044;PMS7003;31781;54.094;13.428;2023-05-10T05:10:20;7.50;7.00;5.25
46044;PMS7003;31781;54.094;13.428;2023-05-10T05:12:22;6.00;6.00;5.50
46044;PMS7003;31781;54.094;13.428;2023-05-10T05:14:23;8.00;7.25;5.50
46044;PMS7003;31781;54.094;13.428;2023-05-10T05:16:25;7.00;7.00;6.00
46044;PMS7003;31781;54.094;13.428;2023-05-10T05:18:26;9.75;8.25;6.75
46044;PMS7003;31781;54.094;13.428;2023-05-10T05:20:31;6.00;6.00;4.00
46044;PMS7003;31781;54.094;13.428;2023-05-10T05:22:35;8.00;7.00;6.00
46044;PMS7003;31781;54.094;13.428;2023-05-10T05:24:37;7.00;7.00;6.00
46044;PMS7003;31781;54.094;13.428;2023-05-10T05:26:39;6.00;6.00;5.50
46044;PMS7003;31781;54.094;13.428;2023-05-10T05:28:41;4.50;4.50;4.25
46044;PMS7003;31781;54.094;13.428;2023-05-10T05:30:43;6.50;5.75;5.00
46044;PMS7003;31781;54.094;13.428;2023-05-10T05:32:45;7.00;7.00;5.75
46044;PMS7003;31781;54.094;13.428;2023-05-10T05:34:46;8.75;6.00;5.50
46044;PMS7003;31781;54.094;13.428;2023-05-10T05:36:49;7.00;6.75;4.75
46044;PMS7003;31781;54.094;13.428;2023-05-10T05:38:52;5.50;5.50;5.00
46044;PMS7003;31781;54.094;13.428;2023-05-10T05:40:54;5.75;5.25;4.50
46044;PMS7003;31781;54.094;13.428;2023-05-10T05:42:55;7.25;7.25;6.00
46044;PMS7003;31781;54.094;13.428;2023-05-10T05:44:57;5.50;5.50;4.75
46044;PMS7003;31781;54.094;13.428;2023-05-10T05:46:59;5.75;5.00;4.75
46044;PMS7003;31781;54.094;13.428;2023-05-10T05:49:01;6.00;6.00;5.50
46044;PMS7003;31781;54.094;13.428;2023-05-10T05:51:03;7.75;7.75;6.00
46044;PMS7003;31781;54.094;13.428;2023-05-10T05:53:07;6.75;5.75;5.25
46044;PMS7003;31781;54.094;13.428;2023-05-10T05:55:11;6.25;6.25;5.25
46044;PMS7003;31781;54.094;13.428;2023-05-10T05:57:13;5.75;5.75;4.75
46044;PMS7003;31781;54.094;13.428;2023-05-10T05:59:15;6.00;6.00;5.25
46044;PMS7003;31781;54.094;13.428;2023-05-10T06:01:19;3.50;3.50;3.50
46044;PMS7003;31781;54.094;13.428;2023-05-10T06:03:21;9.25;8.75;7.00
46044;PMS7003;31781;54.094;13.428;2023-05-10T06:05:27;8.50;8.50;7.00
46044;PMS7003;31781;54.094;13.428;2023-05-10T06:07:29;6.00;6.00;4.50
46044;PMS7003;31781;54.094;13.428;2023-05-10T06:09:30;7.00;7.00;5.50
46044;PMS7003;31781;54.094;13.428;2023-05-10T06:11:34;7.00;7.00;6.00
46044;PMS7003;31781;54.094;13.428;2023-05-10T06:13:36;7.00;5.75;5.00
46044;PMS7003;31781;54.094;13.428;2023-05-10T06:15:38;6.75;6.75;6.00
46044;PMS7003;31781;54.094;13.428;2023-05-10T06:17:40;7.00;7.00;6.00
46044;PMS7003;31781;54.094;13.428;2023-05-10T06:19:42;6.00;6.00;5.00
46044;PMS7003;31781;54.094;13.428;2023-05-10T06:21:43;6.00;6.00;5.00
46044;PMS7003;31781;54.094;13.428;2023-05-10T06:23:45;8.75;6.75;6.25
46044;PMS7003;31781;54.094;13.428;2023-05-10T06:25:47;6.75;6.50;5.00
46044;PMS7003;31781;54.094;13.428;2023-05-10T06:27:50;6.00;6.00;5.00
46044;PMS7003;31781;54.094;13.428;2023-05-10T06:29:54;8.50;8.50;7.00
46044;PMS7003;31781;54.094;13.428;2023-05-10T06:32:09;8.50;7.00;5.50
46044;PMS7003;31781;54.094;13.428;2023-05-10T06:34:11;7.75;7.25;6.00
46044;PMS7003;31781;54.094;13.428;2023-05-10T06:36:13;8.00;7.50;6.50
46044;PMS7003;31781;54.094;13.428;2023-05-10T06:38:15;6.75;6.00;5.00
46044;PMS7003;31781;54.094;13.428;2023-05-10T06:40:16;7.00;7.00;6.00
46044;PMS7003;31781;54.094;13.428;2023-05-10T06:42:18;10.25;10.25;7.00
46044;PMS7003;31781;54.094;13.428;2023-05-10T06:44:22;6.00;6.00;5.00
46044;PMS7003;31781;54.094;13.428;2023-05-10T06:46:24;8.00;6.00;4.25
46044;PMS7003;31781;54.094;13.428;2023-05-10T06:48:25;7.00;7.00;5.75
46044;PMS7003;31781;54.094;13.428;2023-05-10T06:50:27;5.00;5.00;4.50
46044;PMS7003;31781;54.094;13.428;2023-05-10T06:52:29;4.00;4.00;3.75
46044;PMS7003;31781;54.094;13.428;2023-05-10T06:54:30;7.25;6.00;5.00
46044;PMS7003;31781;54.094;13.428;2023-05-10T06:56:32;5.75;5.75;4.00
46044;PMS7003;31781;54.094;13.428;2023-05-10T06:58:34;6.75;6.50;6.00
46044;PMS7003;31781;54.094;13.428;2023-05-10T07:00:37;6.00;6.00;6.00
46044;PMS7003;31781;54.094;13.428;2023-05-10T07:02:39;8.00;7.00;5.00
46044;PMS7003;31781;54.094;13.428;2023-05-10T07:04:41;5.75;5.75;5.50
46044;PMS7003;31781;54.094;13.428;2023-05-10T07:06:42;5.60;5.60;4.40
46044;PMS7003;31781;54.094;13.428;2023-05-10T07:08:44;7.50;7.50;6.00
46044;PMS7003;31781;54.094;13.428;2023-05-10T07:10:46;5.40;5.40;4.20
46044;PMS7003;31781;54.094;13.428;2023-05-10T07:12:48;5.40;4.60;3.60
46044;PMS7003;31781;54.094;13.428;2023-05-10T07:14:50;7.25;5.00;4.25
46044;PMS7003;31781;54.094;13.428;2023-05-10T07:16:53;5.20;5.20;4.00
46044;PMS7003;31781;54.094;13.428;2023-05-10T07:18:55;7.40;6.00;4.60
46044;PMS7003;31781;54.094;13.428;2023-05-10T07:20:57;6.20;6.20;5.00
46044;PMS7003;31781;54.094;13.428;2023-05-10T07:22:59;5.80;5.80;5.60
46044;PMS7003;31781;54.094;13.428;2023-05-10T07:25:00;8.60;6.80;5.80
46044;PMS7003;31781;54.094;13.428;2023-05-10T07:27:02;6.40;6.40;4.80
46044;PMS7003;31781;54.094;13.428;2023-05-10T07:29:04;5.80;5.80;4.80
46044;PMS7003;31781;54.094;13.428;2023-05-10T07:31:06;8.20;6.20;4.80
46044;PMS7003;31781;54.094;13.428;2023-05-10T07:33:10;10.00;5.00;5.00
46044;PMS7003;31781;54.094;13.428;2023-05-10T07:35:14;5.40;5.40;4.80
46044;PMS7003;31781;54.094;13.428;2023-05-10T07:37:16;6.20;4.80;4.20
46044;PMS7003;31781;54.094;13.428;2023-05-10T07:39:18;5.00;5.00;4.40
46044;PMS7003;31781;54.094;13.428;2023-05-10T07:41:27;5.40;5.40;5.00
46044;PMS7003;31781;54.094;13.428;2023-05-10T07:43:29;4.00;4.00;4.00
46044;PMS7003;31781;54.094;13.428;2023-05-10T07:45:31;5.60;5.40;4.40
46044;PMS7003;31781;54.094;13.428;2023-05-10T07:47:33;3.00;3.00;3.00
46044;PMS7003;31781;54.094;13.428;2023-05-10T07:49:36;5.40;5.40;4.80
46044;PMS7003;31781;54.094;13.428;2023-05-10T07:51:37;5.60;5.60;5.00
46044;PMS7003;31781;54.094;13.428;2023-05-10T07:53:39;4.60;4.60;4.00
46044;PMS7003;31781;54.094;13.428;2023-05-10T07:55:40;4.20;4.20;4.20
46044;PMS7003;31781;54.094;13.428;2023-05-10T07:57:42;6.80;6.00;5.00
46044;PMS7003;31781;54.094;13.428;2023-05-10T07:59:44;4.60;4.60;4.20
46044;PMS7003;31781;54.094;13.428;2023-05-10T08:01:46;3.60;3.60;3.00
46044;PMS7003;31781;54.094;13.428;2023-05-10T08:03:47;5.00;5.00;4.00
46044;PMS7003;31781;54.094;13.428;2023-05-10T08:05:51;4.00;4.00;3.80
46044;PMS7003;31781;54.094;13.428;2023-05-10T08:07:52;6.00;5.00;4.00
46044;PMS7003;31781;54.094;13.428;2023-05-10T08:09:54;4.60;4.60;4.00
46044;PMS7003;31781;54.094;13.428;2023-05-10T08:11:56;5.00;5.00;4.00
46044;PMS7003;31781;54.094;13.428;2023-05-10T08:13:58;4.40;3.00;2.80
46044;PMS7003;31781;54.094;13.428;2023-05-10T08:16:00;4.80;4.80;4.00
46044;PMS7003;31781;54.094;13.428;2023-05-10T08:18:02;5.60;4.00;4.00
46044;PMS7003;31781;54.094;13.428;2023-05-10T08:20:04;5.40;5.40;5.00
46044;PMS7003;31781;54.094;13.428;2023-05-10T08:22:07;5.00;4.00;3.40
46044;PMS7003;31781;54.094;13.428;2023-05-10T08:24:09;4.40;4.40;3.40
46044;PMS7003;31781;54.094;13.428;2023-05-10T08:26:11;7.00;7.00;5.40
46044;PMS7003;31781;54.094;13.428;2023-05-10T08:28:14;4.80;3.80;3.00
46044;PMS7003;31781;54.094;13.428;2023-05-10T08:30:15;4.60;4.60;3.00
46044;PMS7003;31781;54.094;13.428;2023-05-10T08:32:17;4.00;3.00;2.00
46044;PMS7003;31781;54.094;13.428;2023-05-10T08:34:19;4.60;4.60;4.00
46044;PMS7003;31781;54.094;13.428;2023-05-10T08:36:21;4.40;4.00;3.40
46044;PMS7003;31781;54.094;13.428;2023-05-10T08:38:24;6.00;4.40;4.00
46044;PMS7003;31781;54.094;13.428;2023-05-10T08:40:26;4.40;4.40;4.00
46044;PMS7003;31781;54.094;13.428;2023-05-10T08:42:28;4.00;4.00;3.00
46044;PMS7003;31781;54.094;13.428;2023-05-10T08:44:32;4.00;3.00;3.00
46044;PMS7003;31781;54.094;13.428;2023-05-10T08:46:36;4.60;4.60;4.00
46044;PMS7003;31781;54.094;13.428;2023-05-10T08:48:38;4.00;4.00;3.60
46044;PMS7003;31781;54.094;13.428;2023-05-10T08:50:41;4.80;4.80;4.00
46044;PMS7003;31781;54.094;13.428;2023-05-10T08:52:43;5.00;5.00;4.60
46044;PMS7003;31781;54.094;13.428;2023-05-10T08:54:50;6.20;5.00;4.60
46044;PMS7003;31781;54.094;13.428;2023-05-10T08:56:52;6.00;5.25;4.00
46044;PMS7003;31781;54.094;13.428;2023-05-10T08:58:54;3.00;3.00;3.00
46044;PMS7003;31781;54.094;13.428;2023-05-10T09:00:56;3.00;3.00;3.00
46044;PMS7003;31781;54.094;13.428;2023-05-10T09:02:59;3.00;3.00;3.00
46044;PMS7003;31781;54.094;13.428;2023-05-10T09:05:02;3.00;3.00;3.00
46044;PMS7003;31781;54.094;13.428;2023-05-10T09:07:05;4.00;4.00;3.00
46044;PMS7003;31781;54.094;13.428;2023-05-10T09:09:08;3.50;3.50;3.00
46044;PMS7003;31781;54.094;13.428;2023-05-10T09:11:13;4.75;4.00;3.75
46044;PMS7003;31781;54.094;13.428;2023-05-10T09:13:15;3.75;3.25;2.75
46044;PMS7003;31781;54.094;13.428;2023-05-10T09:15:20;4.25;4.00;3.00
46044;PMS7003;31781;54.094;13.428;2023-05-10T09:17:22;4.50;4.00;3.00
46044;PMS7003;31781;54.094;13.428;2023-05-10T09:19:25;4.00;4.00;3.25
46044;PMS7003;31781;54.094;13.428;2023-05-10T09:21:27;2.25;2.25;2.25
46044;PMS7003;31781;54.094;13.428;2023-05-10T09:23:29;4.00;4.00;3.00
46044;PMS7003;31781;54.094;13.428;2023-05-10T09:25:31;3.75;3.75;3.00
46044;PMS7003;31781;54.094;13.428;2023-05-10T09:27:34;4.75;4.75;4.50
46044;PMS7003;31781;54.094;13.428;2023-05-10T09:29:39;4.25;3.00;3.00
46044;PMS7003;31781;54.094;13.428;2023-05-10T09:31:45;4.00;4.00;3.50
46044;PMS7003;31781;54.094;13.428;2023-05-10T09:33:49;4.50;3.50;3.25
46044;PMS7003;31781;54.094;13.428;2023-05-10T09:35:51;5.25;4.00;2.75
46044;PMS7003;31781;54.094;13.428;2023-05-10T09:37:54;3.75;3.75;3.25
46044;PMS7003;31781;54.094;13.428;2023-05-10T09:39:56;4.00;4.00;3.75
46044;PMS7003;31781;54.094;13.428;2023-05-10T09:41:58;4.00;4.00;3.75
46044;PMS7003;31781;54.094;13.428;2023-05-10T09:44:02;3.00;3.00;3.00
46044;PMS7003;31781;54.094;13.428;2023-05-10T09:46:08;3.00;3.00;3.00
46044;PMS7003;31781;54.094;13.428;2023-05-10T09:48:10;4.00;4.00;3.50
46044;PMS7003;31781;54.094;13.428;2023-05-10T09:50:12;4.00;4.00;3.00
46044;PMS7003;31781;54.094;13.428;2023-05-10T09:52:14;3.00;3.00;3.00
46044;PMS7003;31781;54.094;13.428;2023-05-10T09:54:16;4.00;4.00;3.50
46044;PMS7003;31781;54.094;13.428;2023-05-10T09:58:39;5.00;4.00;3.00
46044;PMS7003;31781;54.094;13.428;2023-05-10T10:00:43;3.00;3.00;2.25
46044;PMS7003;31781;54.094;13.428;2023-05-10T10:02:46;6.00;4.75;3.75
46044;PMS7003;31781;54.094;13.428;2023-05-10T10:04:49;6.00;3.00;3.00
46044;PMS7003;31781;54.094;13.428;2023-05-10T10:07:01;4.00;4.00;3.00
46044;PMS7003;31781;54.094;13.428;2023-05-10T10:09:03;5.00;4.00;4.00
46044;PMS7003;31781;54.094;13.428;2023-05-10T10:11:06;4.00;4.00;3.00
46044;PMS7003;31781;54.094;13.428;2023-05-10T10:13:08;4.25;4.25;3.25
46044;PMS7003;31781;54.094;13.428;2023-05-10T10:15:10;3.00;3.00;2.50
46044;PMS7003;31781;54.094;13.428;2023-05-10T10:17:14;3.00;2.00;2.00
46044;PMS7003;31781;54.094;13.428;2023-05-10T10:19:19;2.25;2.25;2.00
46044;PMS7003;31781;54.094;13.428;2023-05-10T10:21:21;1.75;1.75;1.00
46044;PMS7003;31781;54.094;13.428;2023-05-10T10:23:24;3.00;3.00;2.00
46044;PMS7003;31781;54.094;13.428;2023-05-10T10:25:27;3.00;3.00;2.25
46044;PMS7003;31781;54.094;13.428;2023-05-10T10:27:33;4.00;4.00;4.00
46044;PMS7003;31781;54.094;13.428;2023-05-10T10:29:47;3.00;3.00;2.00
46044;PMS7003;31781;54.094;13.428;2023-05-10T10:32:09;5.25;4.00;3.00
46044;PMS7003;31781;54.094;13.428;2023-05-10T10:34:24;3.00;3.00;3.00
46044;PMS7003;31781;54.094;13.428;2023-05-10T10:36:27;4.50;3.25;3.00
46044;PMS7003;31781;54.094;13.428;2023-05-10T10:38:35;3.00;2.00;2.00
46044;PMS7003;31781;54.094;13.428;2023-05-10T10:40:38;4.00;3.00;3.00
46044;PMS7003;31781;54.094;13.428;2023-05-10T10:42:43;2.50;2.50;2.00
46044;PMS7003;31781;54.094;13.428;2023-05-10T10:44:46;3.75;3.00;3.00
46044;PMS7003;31781;54.094;13.428;2023-05-10T10:47:04;3.75;3.00;2.00
46044;PMS7003;31781;54.094;13.428;2023-05-10T10:49:08;3.00;3.00;3.00
46044;PMS7003;31781;54.094;13.428;2023-05-10T10:51:12;1.75;1.75;1.75
46044;PMS7003;31781;54.094;13.428;2023-05-10T10:53:14;2.25;2.00;2.00
46044;PMS7003;31781;54.094;13.428;2023-05-10T10:55:17;4.25;4.25;3.00
46044;PMS7003;31781;54.094;13.428;2023-05-10T10:57:20;2.00;2.00;2.00
46044;PMS7003;31781;54.094;13.428;2023-05-10T10:59:26;3.00;3.00;2.75
46044;PMS7003;31781;54.094;13.428;2023-05-10T11:01:32;4.00;2.75;2.25
46044;PMS7003;31781;54.094;13.428;2023-05-10T11:03:35;2.00;2.00;2.00
46044;PMS7003;31781;54.094;13.428;2023-05-10T11:05:38;2.75;2.75;2.25
46044;PMS7003;31781;54.094;13.428;2023-05-10T11:07:52;3.00;3.00;3.00
46044;PMS7003;31781;54.094;13.428;2023-05-10T11:09:54;1.50;1.50;1.50
46044;PMS7003;31781;54.094;13.428;2023-05-10T11:11:56;2.75;2.75;2.00
46044;PMS7003;31781;54.094;13.428;2023-05-10T11:14:02;2.50;2.00;1.75
46044;PMS7003;31781;54.094;13.428;2023-05-10T11:16:09;2.00;2.00;1.50
46044;PMS7003;31781;54.094;13.428;2023-05-10T11:18:17;2.25;1.00;0.75
46044;PMS7003;31781;54.094;13.428;2023-05-10T11:20:19;3.00;3.00;2.50
46044;PMS7003;31781;54.094;13.428;2023-05-10T11:22:21;3.00;3.00;3.00
46044;PMS7003;31781;54.094;13.428;2023-05-10T11:24:27;2.00;2.00;2.00
46044;PMS7003;31781;54.094;13.428;2023-05-10T11:26:30;3.75;2.00;2.00
46044;PMS7003;31781;54.094;13.428;2023-05-10T11:28:33;2.50;2.50;1.75
46044;PMS7003;31781;54.094;13.428;2023-05-10T11:30:38;4.50;2.00;2.00
46044;PMS7003;31781;54.094;13.428;2023-05-10T11:32:40;2.25;2.25;2.00
46044;PMS7003;31781;54.094;13.428;2023-05-10T11:34:42;3.00;2.25;2.00
46044;PMS7003;31781;54.094;13.428;2023-05-10T11:36:50;2.75;2.75;2.00
46044;PMS7003;31781;54.094;13.428;2023-05-10T11:38:53;2.25;2.25;2.00
46044;PMS7003;31781;54.094;13.428;2023-05-10T11:40:57;1.00;1.00;1.00
46044;PMS7003;31781;54.094;13.428;2023-05-10T11:42:59;3.00;2.00;2.00
46044;PMS7003;31781;54.094;13.428;2023-05-10T11:45:00;2.00;2.00;2.00
46044;PMS7003;31781;54.094;13.428;2023-05-10T11:47:02;2.25;2.25;2.00
46044;PMS7003;31781;54.094;13.428;2023-05-10T11:49:05;2.50;2.25;2.00
46044;PMS7003;31781;54.094;13.428;2023-05-10T11:51:09;3.00;3.00;3.00
46044;PMS7003;31781;54.094;13.428;2023-05-10T11:53:12;3.00;3.00;2.50
46044;PMS7003;31781;54.094;13.428;2023-05-10T11:55:14;4.00;3.75;3.00
46044;PMS7003;31781;54.094;13.428;2023-05-10T11:57:17;3.00;3.00;2.75